Time;durP1;ratioP1;P1;durP2;ratioP2;P2;SDS_P1;SDS_P2;PMS_P1;PMS_P2;Temp;Humidity;BMP_temperature;BMP_pressure;BME280_temperature;BME280_humidity;BME280_pressure;Samples;Min_cycle;Max_cycle;Signal;HPM_P1;HPM_P2
2023/10/15 00:00:15;;;;;;;6.80;1.80;;;6.60;99.90;;;;;;5008527;28;20478;-64
2023/10/15 00:02:44;;;;;;;2.57;1.33;;;6.60;99.90;;;;;;5008445;28;20521;-64
2023/10/15 00:05:18;;;;;;;11.40;1.27;;;6.70;99.90;;;;;;5006916;28;20432;-64
2023/10/15 00:07:44;;;;;;;5.13;1.83;;;6.70;99.90;;;;;;5007430;28;21182;-64
2023/10/15 00:10:11;;;;;;;2.17;0.90;;;6.70;99.90;;;;;;5009821;28;20416;-64
2023/10/15 00:12:40;;;;;;;4.50;1.07;;;6.80;99.90;;;;;;5008063;28;20431;-64
2023/10/15 00:15:14;;;;;;;3.33;0.80;;;6.90;99.90;;;;;;5012114;28;20430;-62
2023/10/15 00:17:40;;;;;;;16.27;2.00;;;6.90;99.90;;;;;;5010147;28;20532;-63
2023/10/15 00:20:10;;;;;;;2.73;0.93;;;6.90;99.90;;;;;;5011274;28;20426;-62
2023/10/15 00:22:37;;;;;;;3.40;0.93;;;7.00;99.90;;;;;;5010031;28;20423;-63
2023/10/15 00:25:08;;;;;;;2.70;0.80;;;7.00;99.90;;;;;;5011926;28;20424;-62
2023/10/15 00:27:34;;;;;;;2.27;0.93;;;7.00;99.90;;;;;;5008522;28;20429;-62
2023/10/15 00:29:59;;;;;;;1.50;0.70;;;7.00;99.90;;;;;;5011517;28;20436;-62
2023/10/15 00:32:25;;;;;;;1.70;0.70;;;7.10;99.90;;;;;;5009215;28;20207;-62
2023/10/15 00:34:50;;;;;;;3.57;1.20;;;7.00;99.90;;;;;;5011750;28;20189;-62
2023/10/15 00:37:16;;;;;;;2.23;0.87;;;7.00;99.90;;;;;;5010454;28;20257;-62
2023/10/15 00:39:41;;;;;;;7.60;1.33;;;7.00;99.90;;;;;;5010952;28;20189;-62
2023/10/15 00:42:07;;;;;;;4.13;1.37;;;7.00;99.90;;;;;;5010727;28;20207;-62
2023/10/15 00:44:33;;;;;;;3.10;0.70;;;7.00;99.90;;;;;;5005559;28;20266;-63
2023/10/15 00:47:03;;;;;;;3.83;1.83;;;6.90;99.90;;;;;;5011470;28;20269;-62
2023/10/15 00:49:30;;;;;;;9.43;1.83;;;6.90;99.90;;;;;;5005809;28;20643;-62
2023/10/15 00:51:56;;;;;;;2.23;1.17;;;6.80;99.90;;;;;;5011301;28;20426;-62
2023/10/15 00:54:23;;;;;;;4.50;1.33;;;6.80;99.90;;;;;;5006161;28;20442;-62
2023/10/15 00:56:50;;;;;;;4.47;1.33;;;6.80;99.90;;;;;;5030696;23;21110;-62
2023/10/15 01:04:30;;;;;;;3.33;0.93;;;6.80;99.90;;;;;;5024879;28;20205;-63
2023/10/15 01:07:00;;;;;;;2.80;0.90;;;6.90;99.90;;;;;;5030914;28;20476;-62
2023/10/15 01:09:29;;;;;;;6.70;1.57;;;6.90;99.90;;;;;;5026131;28;20432;-62
2023/10/15 01:11:58;;;;;;;2.80;0.90;;;6.90;99.90;;;;;;5030257;28;20433;-62
2023/10/15 01:14:32;;;;;;;3.97;1.00;;;6.90;99.90;;;;;;5028676;28;20536;-62
2023/10/15 01:17:02;;;;;;;1.80;0.73;;;6.90;99.90;;;;;;5029897;28;20449;-63
2023/10/15 01:19:33;;;;;;;1.20;0.53;;;7.00;99.90;;;;;;5028560;28;20436;-63
2023/10/15 01:22:03;;;;;;;3.70;1.50;;;7.00;99.90;;;;;;5030291;28;20464;-62
2023/10/15 01:24:33;;;;;;;9.93;1.50;;;7.10;99.90;;;;;;5028779;28;20432;-62
2023/10/15 01:27:00;;;;;;;2.43;0.90;;;7.10;99.90;;;;;;5030258;28;20432;-63
2023/10/15 01:29:27;;;;;;;7.27;1.03;;;7.10;99.90;;;;;;5027205;28;20429;-63
2023/10/15 01:31:58;;;;;;;3.80;1.20;;;7.20;99.90;;;;;;5029941;28;20425;-62
2023/10/15 01:34:27;;;;;;;5.70;1.00;;;7.30;99.90;;;;;;5026811;28;21268;-63
2023/10/15 01:37:02;;;;;;;2.10;1.00;;;7.30;99.90;;;;;;5030396;28;20472;-63
2023/10/15 01:39:37;;;;;;;3.73;1.40;;;7.40;99.90;;;;;;5024531;28;20443;-63
2023/10/15 01:42:06;;;;;;;5.63;1.17;;;7.50;99.90;;;;;;5022186;28;20492;-63
2023/10/15 01:44:47;;;;;;;1.93;0.93;;;7.60;99.90;;;;;;5025230;28;20604;-63
2023/10/15 01:47:13;;;;;;;6.60;1.53;;;7.50;99.90;;;;;;5029186;28;20504;-63
2023/10/15 01:49:39;;;;;;;2.47;1.20;;;7.50;99.90;;;;;;5022585;28;20615;-63
2023/10/15 01:52:23;;;;;;;3.10;1.27;;;7.60;99.90;;;;;;5029718;28;20289;-62
2023/10/15 01:54:49;;;;;;;2.10;1.13;;;7.50;99.90;;;;;;5024712;28;20194;-63
2023/10/15 01:57:17;;;;;;;3.10;1.13;;;7.60;99.90;;;;;;5028996;28;20972;-63
2023/10/15 01:59:46;;;;;;;3.57;1.40;;;7.70;99.90;;;;;;5023029;28;21010;-63
2023/10/15 02:02:17;;;;;;;4.40;1.47;;;7.70;99.90;;;;;;5028332;28;20495;-63
2023/10/15 02:04:46;;;;;;;2.33;0.90;;;7.60;99.90;;;;;;5024884;28;20456;-63
2023/10/15 02:07:19;;;;;;;2.50;1.20;;;7.70;99.90;;;;;;5029417;28;20780;-63
2023/10/15 02:09:46;;;;;;;3.90;1.07;;;7.60;99.90;;;;;;5025503;28;20439;-63
2023/10/15 02:12:19;;;;;;;4.27;1.30;;;7.60;99.90;;;;;;5028752;28;20418;-63
2023/10/15 02:14:47;;;;;;;2.30;1.00;;;7.70;99.90;;;;;;5031986;28;20475;-63
2023/10/15 02:17:23;;;;;;;2.43;0.90;;;7.60;99.90;;;;;;5032815;28;20425;-62
2023/10/15 02:19:49;;;;;;;6.80;0.80;;;7.60;99.90;;;;;;5032459;28;20420;-62
2023/10/15 02:22:15;;;;;;;6.10;1.00;;;7.60;99.90;;;;;;5032328;28;20461;-63
2023/10/15 02:24:56;;;;;;;1.40;0.80;;;7.70;99.90;;;;;;5033373;28;20186;-63
2023/10/15 02:27:25;;;;;;;3.70;1.17;;;7.70;99.90;;;;;;5032417;28;20220;-63
2023/10/15 02:29:53;;;;;;;1.80;0.90;;;7.70;99.90;;;;;;5032397;28;20512;-63
2023/10/15 02:34:53;;;;;;;4.40;1.07;;;7.80;99.90;;;;;;5032502;28;20452;-63
2023/10/15 02:37:26;;;;;;;2.70;0.83;;;7.90;99.90;;;;;;5031854;28;20421;-63
2023/10/15 02:39:52;;;;;;;15.80;1.63;;;7.80;99.90;;;;;;5028502;28;20531;-63
2023/10/15 02:42:19;;;;;;;7.23;1.00;;;7.90;99.90;;;;;;5031486;28;20482;-63
2023/10/15 02:44:50;;;;;;;3.80;1.20;;;7.90;99.90;;;;;;5028596;28;20989;-63
2023/10/15 02:47:20;;;;;;;3.70;1.50;;;7.80;99.90;;;;;;5031627;28;20504;-63
2023/10/15 02:49:52;;;;;;;3.00;1.23;;;7.90;99.90;;;;;;5027585;28;20515;-63
2023/10/15 02:52:23;;;;;;;3.57;0.97;;;7.90;99.90;;;;;;5032434;28;20435;-63
2023/10/15 02:54:49;;;;;;;1.40;0.70;;;7.90;99.90;;;;;;5028267;28;21065;-63
2023/10/15 02:57:15;;;;;;;5.87;0.87;;;8.00;99.90;;;;;;5031555;28;20428;-63
2023/10/15 02:59:51;;;;;;;4.43;1.23;;;8.00;99.90;;;;;;5026898;28;20571;-63
2023/10/15 03:02:18;;;;;;;2.90;0.90;;;8.10;99.90;;;;;;5031188;28;20206;-63
2023/10/15 03:04:49;;;;;;;3.00;0.90;;;8.00;99.90;;;;;;5028284;28;20861;-63
2023/10/15 03:09:45;;;;;;;10.47;1.80;;;8.10;99.90;;;;;;5030759;28;20445;-63
2023/10/15 03:12:14;;;;;;;3.23;1.13;;;8.10;99.90;;;;;;5031996;28;20413;-63
2023/10/15 03:14:43;;;;;;;2.53;1.00;;;8.20;99.90;;;;;;5032571;28;20432;-63
2023/10/15 03:17:24;;;;;;;6.10;1.40;;;8.10;99.90;;;;;;5031782;28;20467;-63
2023/10/15 03:20:11;;;;;;;1.73;0.80;;;8.20;99.90;;;;;;5031279;28;20425;-63
2023/10/15 03:22:38;;;;;;;4.17;1.70;;;8.20;99.90;;;;;;5030507;28;20935;-63
2023/10/15 03:25:05;;;;;;;1.50;0.60;;;8.30;99.90;;;;;;5028474;28;20433;-63
2023/10/15 03:27:32;;;;;;;3.63;1.10;;;8.20;99.90;;;;;;5029836;28;21069;-63
2023/10/15 03:29:58;;;;;;;2.37;1.20;;;8.20;99.90;;;;;;5027662;28;20432;-63
2023/10/15 03:32:31;;;;;;;3.40;1.03;;;8.10;99.90;;;;;;5030462;28;21351;-63
2023/10/15 03:35:04;;;;;;;3.90;1.40;;;8.20;99.90;;;;;;5027327;28;20179;-63
2023/10/15 03:37:31;;;;;;;3.10;1.00;;;8.20;99.90;;;;;;5025604;28;20440;-63
2023/10/15 03:39:57;;;;;;;2.77;1.10;;;8.10;99.90;;;;;;5025270;28;20479;-63
2023/10/15 03:42:26;;;;;;;3.07;0.90;;;8.10;99.90;;;;;;5025557;28;20417;-63
2023/10/15 03:45:02;;;;;;;3.80;1.43;;;8.00;99.90;;;;;;5025591;28;20446;-63
2023/10/15 03:47:28;;;;;;;3.67;0.87;;;8.10;99.90;;;;;;5029563;28;20459;-63
2023/10/15 03:49:55;;;;;;;13.47;1.27;;;8.10;99.90;;;;;;5028065;28;20422;-63
2023/10/15 03:52:22;;;;;;;2.43;1.13;;;8.10;99.90;;;;;;5029896;28;20178;-63
2023/10/15 03:54:48;;;;;;;7.93;1.30;;;8.10;99.90;;;;;;5027322;28;20800;-63
2023/10/15 03:57:18;;;;;;;8.30;1.00;;;7.90;99.90;;;;;;5030643;28;20441;-63
2023/10/15 03:59:53;;;;;;;7.63;1.20;;;7.80;99.90;;;;;;5026476;28;20972;-63
2023/10/15 04:02:26;;;;;;;9.03;1.20;;;7.80;99.90;;;;;;5030168;28;20963;-63
2023/10/15 04:05:08;;;;;;;2.60;1.13;;;7.90;99.90;;;;;;5027747;28;20457;-63
2023/10/15 04:07:39;;;;;;;3.67;1.57;;;8.00;99.90;;;;;;5026674;28;20724;-63
2023/10/15 04:10:08;;;;;;;2.43;1.00;;;8.00;99.90;;;;;;5026520;28;20955;-63
2023/10/15 04:12:40;;;;;;;3.70;1.10;;;8.00;99.90;;;;;;5029520;28;20492;-63
2023/10/15 04:15:14;;;;;;;5.67;1.50;;;7.90;99.90;;;;;;5022328;28;20535;-63
2023/10/15 04:17:42;;;;;;;4.33;1.40;;;7.90;99.90;;;;;;5029785;28;20432;-64
2023/10/15 04:20:08;;;;;;;7.07;1.30;;;7.90;99.90;;;;;;5028443;28;20414;-64
2023/10/15 04:22:43;;;;;;;7.93;2.10;;;7.80;99.90;;;;;;5029764;28;20434;-64
2023/10/15 04:25:23;;;;;;;2.17;1.10;;;7.70;99.90;;;;;;5026083;28;20858;-64
2023/10/15 04:27:49;;;;;;;2.93;1.70;;;7.70;99.90;;;;;;5028442;28;20426;-64
2023/10/15 04:30:14;;;;;;;3.20;1.20;;;7.70;99.90;;;;;;5025075;28;20495;-64
2023/10/15 04:35:11;;;;;;;7.53;1.40;;;7.70;99.90;;;;;;5026136;28;20212;-64
2023/10/15 04:37:37;;;;;;;2.70;0.97;;;7.70;99.90;;;;;;5026428;28;20217;-64
2023/10/15 04:40:11;;;;;;;1.87;0.80;;;7.70;99.90;;;;;;5027001;28;20490;-64
2023/10/15 04:42:43;;;;;;;1.57;0.90;;;7.80;99.90;;;;;;5029124;28;20470;-64
2023/10/15 04:45:35;;;;;;;1.87;1.00;;;7.80;99.90;;;;;;5028037;28;20780;-64
2023/10/15 04:48:01;;;;;;;6.90;1.73;;;7.80;99.90;;;;;;5026567;28;21025;-64
2023/10/15 04:50:35;;;;;;;2.40;1.40;;;7.80;99.90;;;;;;5027934;28;20429;-65
2023/10/15 04:53:14;;;;;;;2.40;1.00;;;7.90;99.90;;;;;;5024296;28;20241;-65
2023/10/15 04:55:40;;;;;;;3.13;1.20;;;7.80;99.90;;;;;;5021285;28;20443;-65
2023/10/15 04:58:06;;;;;;;1.60;0.90;;;7.70;99.90;;;;;;5019279;28;20959;-64
2023/10/15 05:00:33;;;;;;;2.33;0.97;;;7.70;99.90;;;;;;5021155;28;20464;-65
2023/10/15 05:02:59;;;;;;;3.00;1.20;;;7.60;99.90;;;;;;5018360;28;20210;-65
2023/10/15 05:05:24;;;;;;;2.80;1.27;;;7.60;99.90;;;;;;5018527;28;20552;-64
2023/10/15 05:07:50;;;;;;;2.03;0.90;;;7.60;99.90;;;;;;5021259;28;20215;-65
2023/10/15 05:10:15;;;;;;;2.20;1.30;;;7.60;99.90;;;;;;5020359;28;20190;-65
2023/10/15 05:12:41;;;;;;;3.83;1.63;;;7.60;99.90;;;;;;5020174;28;20615;-64
2023/10/15 05:15:13;;;;;;;5.67;1.27;;;7.60;99.90;;;;;;5020086;28;20187;-64
2023/10/15 05:17:42;;;;;;;5.50;1.43;;;7.60;99.90;;;;;;5017453;28;20186;-65
2023/10/15 05:20:11;;;;;;;2.23;1.00;;;7.60;99.90;;;;;;5019517;28;20451;-64
2023/10/15 05:22:37;;;;;;;5.73;1.60;;;7.60;99.90;;;;;;5017667;28;20902;-64
2023/10/15 05:25:04;;;;;;;3.93;1.13;;;7.60;99.90;;;;;;5021185;28;20535;-64
2023/10/15 05:27:29;;;;;;;2.27;1.10;;;7.60;99.90;;;;;;5017536;28;20906;-64
2023/10/15 05:29:57;;;;;;;5.67;1.87;;;7.60;99.90;;;;;;5019810;28;20435;-64
2023/10/15 05:32:22;;;;;;;4.70;1.20;;;7.70;99.90;;;;;;5020711;28;20186;-64
2023/10/15 05:34:48;;;;;;;1.80;1.17;;;7.70;99.90;;;;;;5018722;28;20444;-64
2023/10/15 05:37:13;;;;;;;4.43;1.10;;;7.70;99.90;;;;;;5020556;28;20794;-64
2023/10/15 05:39:41;;;;;;;7.53;1.00;;;7.70;99.90;;;;;;5019181;28;20269;-64
2023/10/15 05:42:07;;;;;;;3.87;1.07;;;7.70;99.90;;;;;;5018893;28;20208;-64
2023/10/15 05:44:34;;;;;;;4.87;1.33;;;7.70;99.90;;;;;;5018907;28;20558;-64
2023/10/15 05:47:00;;;;;;;2.67;0.97;;;7.70;99.90;;;;;;5021680;28;20422;-64
2023/10/15 05:49:26;;;;;;;12.23;1.33;;;7.70;99.90;;;;;;5020734;28;20550;-64
2023/10/15 05:51:51;;;;;;;4.07;1.23;;;7.70;99.90;;;;;;5019506;28;20190;-65
2023/10/15 05:54:17;;;;;;;1.80;1.20;;;7.70;99.90;;;;;;5020004;28;20441;-64
2023/10/15 05:56:43;;;;;;;1.90;1.00;;;7.70;99.90;;;;;;5019618;28;20233;-64
2023/10/15 05:59:09;;;;;;;4.13;1.77;;;7.70;99.90;;;;;;5018170;28;20447;-64
2023/10/15 06:01:34;;;;;;;2.80;1.20;;;7.70;99.90;;;;;;5020950;28;20324;-64
2023/10/15 06:04:00;;;;;;;9.37;1.37;;;7.70;99.90;;;;;;5017944;28;20191;-64
2023/10/15 06:06:26;;;;;;;3.63;1.43;;;7.80;99.90;;;;;;5020342;28;20190;-64
2023/10/15 06:08:53;;;;;;;3.73;1.07;;;7.80;99.90;;;;;;5018958;28;20630;-64
2023/10/15 06:11:19;;;;;;;3.20;1.50;;;7.80;99.90;;;;;;5019823;28;20922;-65
2023/10/15 06:13:45;;;;;;;3.17;1.50;;;7.80;99.90;;;;;;5019559;28;20437;-65
2023/10/15 06:16:10;;;;;;;3.27;1.37;;;7.80;99.90;;;;;;5022087;28;20273;-65
2023/10/15 06:18:36;;;;;;;9.67;1.53;;;7.80;99.90;;;;;;5017049;28;20527;-64
2023/10/15 06:21:01;;;;;;;6.93;1.63;;;7.80;99.90;;;;;;5019020;28;21027;-65
2023/10/15 06:23:27;;;;;;;2.30;1.43;;;7.80;99.90;;;;;;5016763;28;20202;-65
2023/10/15 06:25:53;;;;;;;4.50;1.40;;;7.90;99.90;;;;;;5019501;28;20225;-64
2023/10/15 06:28:20;;;;;;;7.10;1.77;;;7.90;99.90;;;;;;5019612;28;20229;-64
2023/10/15 06:30:45;;;;;;;4.43;1.83;;;8.00;99.90;;;;;;5019828;28;20236;-64
2023/10/15 06:33:12;;;;;;;6.20;1.40;;;7.90;99.90;;;;;;5018587;28;20819;-64
2023/10/15 06:35:40;;;;;;;2.87;1.47;;;7.90;99.90;;;;;;5019039;28;20325;-64
2023/10/15 06:38:05;;;;;;;5.80;1.60;;;8.00;99.90;;;;;;5018627;28;21601;-64
2023/10/15 06:40:31;;;;;;;3.37;1.20;;;8.00;99.90;;;;;;5019674;28;20511;-64
2023/10/15 06:43:00;;;;;;;4.17;1.47;;;8.10;99.90;;;;;;5018843;28;20191;-64
2023/10/15 06:45:27;;;;;;;3.43;1.70;;;8.10;99.90;;;;;;5017243;28;20437;-64
2023/10/15 06:47:53;;;;;;;8.50;1.70;;;8.20;99.90;;;;;;5017399;28;20429;-64
2023/10/15 06:50:19;;;;;;;2.20;1.27;;;8.20;99.90;;;;;;5018674;28;20429;-64
2023/10/15 06:52:45;;;;;;;2.33;1.37;;;8.20;99.90;;;;;;5019302;28;20437;-64
2023/10/15 06:55:13;;;;;;;7.53;2.30;;;8.20;99.90;;;;;;5018588;28;20265;-64
2023/10/15 06:57:39;;;;;;;3.90;1.33;;;8.20;99.90;;;;;;5019877;28;20449;-64
2023/10/15 07:00:07;;;;;;;8.43;2.20;;;8.20;99.90;;;;;;5021121;28;20437;-64
2023/10/15 07:02:32;;;;;;;1.93;1.00;;;8.20;99.90;;;;;;5021804;28;20433;-64
2023/10/15 07:05:00;;;;;;;5.80;1.53;;;8.30;99.90;;;;;;5022361;28;20433;-64
2023/10/15 07:07:27;;;;;;;2.13;1.30;;;8.40;99.90;;;;;;5022477;28;20190;-64
2023/10/15 07:09:53;;;;;;;5.40;1.30;;;8.40;99.90;;;;;;5022096;28;20798;-64
2023/10/15 07:12:20;;;;;;;11.70;2.50;;;8.50;99.90;;;;;;5020216;28;20465;-64
2023/10/15 07:14:46;;;;;;;2.77;0.80;;;8.50;99.90;;;;;;5021343;28;20440;-64
2023/10/15 07:17:11;;;;;;;2.90;1.10;;;8.50;99.90;;;;;;5022937;28;20520;-64
2023/10/15 07:19:37;;;;;;;2.70;1.20;;;8.60;99.90;;;;;;5021644;28;20443;-64
2023/10/15 07:22:04;;;;;;;3.17;1.30;;;8.50;99.90;;;;;;5019121;28;20238;-64
2023/10/15 07:24:31;;;;;;;6.87;1.90;;;8.50;99.90;;;;;;5022138;28;20229;-64
2023/10/15 07:26:57;;;;;;;5.23;1.27;;;8.50;99.90;;;;;;5021833;28;20429;-64
2023/10/15 07:29:24;;;;;;;8.03;1.90;;;8.50;99.90;;;;;;5022208;28;20433;-64
2023/10/15 07:31:49;;;;;;;4.00;1.60;;;8.60;99.90;;;;;;5023343;28;20183;-64
2023/10/15 07:34:16;;;;;;;5.50;1.10;;;8.50;99.90;;;;;;5021312;28;20901;-63
2023/10/15 07:36:43;;;;;;;1.90;1.27;;;8.60;99.90;;;;;;5019033;28;20689;-64
2023/10/15 07:39:09;;;;;;;1.70;0.90;;;8.60;99.90;;;;;;5021682;28;20429;-64
2023/10/15 07:41:35;;;;;;;7.40;1.30;;;8.60;99.90;;;;;;5020250;28;20944;-64
2023/10/15 07:44:03;;;;;;;2.43;1.00;;;8.60;99.90;;;;;;5021826;28;20194;-64
2023/10/15 07:46:30;;;;;;;4.47;1.67;;;8.60;99.90;;;;;;5024034;28;20193;-64
2023/10/15 07:48:58;;;;;;;4.80;0.90;;;8.60;99.90;;;;;;5019524;28;20444;-64
2023/10/15 07:51:24;;;;;;;14.63;1.40;;;8.90;99.90;;;;;;5020549;28;20739;-64
2023/10/15 07:53:49;;;;;;;3.40;1.40;;;9.40;99.90;;;;;;5022035;28;20432;-64
2023/10/15 07:56:15;;;;;;;2.07;1.20;;;;;;;;;;5022896;28;20196;-64
2023/10/15 07:58:41;;;;;;;3.73;1.50;;;9.90;99.90;;;;;;5021529;28;20210;-63
2023/10/15 08:01:07;;;;;;;2.23;0.93;;;10.00;99.90;;;;;;5021480;28;20590;-64
2023/10/15 08:03:32;;;;;;;2.07;1.00;;;10.00;99.90;;;;;;5020061;28;20668;-64
2023/10/15 08:06:01;;;;;;;2.37;1.27;;;10.00;99.90;;;;;;5019950;28;20192;-64
2023/10/15 08:08:30;;;;;;;2.03;1.27;;;10.00;99.90;;;;;;5020248;28;20186;-63
2023/10/15 08:10:58;;;;;;;2.53;1.30;;;9.90;99.90;;;;;;5021453;28;20429;-64
2023/10/15 08:13:24;;;;;;;2.77;1.27;;;9.80;99.90;;;;;;5019750;28;20447;-63
2023/10/15 08:15:50;;;;;;;3.83;1.57;;;9.80;99.90;;;;;;5021135;28;20485;-63
2023/10/15 08:18:15;;;;;;;1.40;0.70;;;9.70;99.90;;;;;;5020821;28;20217;-64
2023/10/15 08:20:41;;;;;;;3.23;1.00;;;9.70;99.90;;;;;;5021149;28;20232;-63
2023/10/15 08:23:07;;;;;;;5.73;1.30;;;9.60;99.90;;;;;;5020992;28;20568;-63
2023/10/15 08:25:32;;;;;;;1.50;0.83;;;9.90;99.90;;;;;;5020617;28;20621;-63
2023/10/15 08:27:58;;;;;;;1.97;1.07;;;10.30;99.90;;;;;;5021197;28;20202;-64
2023/10/15 08:30:23;;;;;;;2.43;1.20;;;10.50;99.90;;;;;;5019449;28;20186;-63
2023/10/15 08:32:49;;;;;;;2.63;1.37;;;11.00;99.90;;;;;;5019645;28;20195;-63
2023/10/15 08:35:16;;;;;;;8.97;1.27;;;11.40;99.90;;;;;;5021675;28;20687;-64
2023/10/15 08:37:45;;;;;;;3.53;0.93;;;11.50;99.90;;;;;;5020448;28;20179;-63
2023/10/15 08:40:18;;;;;;;2.20;0.77;;;11.40;99.90;;;;;;5019781;28;20490;-63
2023/10/15 08:43:09;;;;;;;4.60;1.17;;;10.90;99.90;;;;;;5018908;28;20463;-63
2023/10/15 08:45:35;;;;;;;2.97;1.00;;;10.60;99.90;;;;;;5021666;28;21120;-63
2023/10/15 08:48:01;;;;;;;5.77;1.90;;;10.70;99.90;;;;;;5019879;28;20445;-64
2023/10/15 08:50:29;;;;;;;2.43;1.17;;;10.60;99.90;;;;;;5020361;28;20507;-63
2023/10/15 08:52:55;;;;;;;12.67;0.97;;;10.50;99.90;;;;;;5020150;28;20480;-63
2023/10/15 08:55:24;;;;;;;6.53;1.20;;;10.50;99.90;;;;;;5020394;28;20520;-63
2023/10/15 08:57:56;;;;;;;3.00;1.00;;;10.40;99.90;;;;;;5021184;28;20460;-63
2023/10/15 09:00:25;;;;;;;5.53;1.10;;;10.30;99.90;;;;;;5021732;28;20460;-63
2023/10/15 09:02:56;;;;;;;2.33;0.97;;;10.20;99.90;;;;;;5017912;28;20448;-63
2023/10/15 09:05:22;;;;;;;2.53;0.87;;;10.30;99.90;;;;;;5020005;28;20429;-63
2023/10/15 09:07:51;;;;;;;2.60;1.00;;;10.40;99.90;;;;;;5020629;28;20564;-63
2023/10/15 09:10:17;;;;;;;8.20;1.10;;;10.40;99.90;;;;;;5020988;28;20445;-63
2023/10/15 09:12:43;;;;;;;2.33;0.93;;;10.40;99.90;;;;;;5020483;28;20445;-65
2023/10/15 09:15:15;;;;;;;7.47;1.13;;;10.20;99.90;;;;;;5020384;28;20182;-64
2023/10/15 09:17:57;;;;;;;7.23;1.20;;;9.70;99.90;;;;;;5018876;28;20241;-65
2023/10/15 09:20:27;;;;;;;1.63;0.80;;;9.40;99.90;;;;;;5019289;28;20429;-63
2023/10/15 09:22:59;;;;;;;2.40;1.20;;;9.40;99.90;;;;;;5019376;28;21735;-63
2023/10/15 09:25:26;;;;;;;3.50;0.80;;;8.90;99.90;;;;;;5020048;28;20966;-63
2023/10/15 09:27:58;;;;;;;1.67;0.90;;;8.90;99.90;;;;;;5020265;28;20457;-66
2023/10/15 09:30:25;;;;;;;5.03;1.37;;;9.00;99.90;;;;;;5020076;28;20432;-64
2023/10/15 09:32:51;;;;;;;2.90;1.37;;;9.50;99.90;;;;;;5017431;28;20437;-65
2023/10/15 09:35:17;;;;;;;1.90;1.00;;;9.60;99.90;;;;;;5021064;28;20524;-64
2023/10/15 09:37:46;;;;;;;1.90;1.10;;;9.30;99.90;;;;;;5020498;28;20449;-64
2023/10/15 09:40:23;;;;;;;1.60;0.77;;;9.30;99.90;;;;;;5019472;28;20544;-64
2023/10/15 09:42:53;;;;;;;5.93;1.30;;;9.30;99.90;;;;;;5020752;28;20444;-64
2023/10/15 09:45:23;;;;;;;5.33;1.57;;;9.60;99.90;;;;;;5019388;28;20519;-63
2023/10/15 09:47:57;;;;;;;3.97;1.33;;;9.60;99.90;;;;;;5020413;28;20441;-64
2023/10/15 09:50:27;;;;;;;5.17;1.50;;;9.60;99.90;;;;;;5017761;28;20433;-64
2023/10/15 09:52:57;;;;;;;5.50;1.50;;;9.60;99.90;;;;;;5016686;28;20448;-64
2023/10/15 09:55:32;;;;;;;3.90;1.30;;;10.00;99.90;;;;;;5020610;28;20929;-64
2023/10/15 09:58:01;;;;;;;2.20;1.30;;;10.30;99.90;;;;;;5018191;28;20463;-63
2023/10/15 10:03:22;;;;;;;3.13;1.50;;;10.30;99.90;;;;;;5018967;28;21046;-64
2023/10/15 10:05:58;;;;;;;2.50;1.07;;;;;;;;;;5020305;28;20432;-63
2023/10/15 10:08:37;;;;;;;1.80;0.83;;;10.40;99.90;;;;;;5018807;28;20429;-63
2023/10/15 10:11:38;;;;;;;7.13;2.10;;;10.40;99.90;;;;;;5018996;28;20432;-63
2023/10/15 10:14:35;;;;;;;3.77;1.43;;;10.20;99.90;;;;;;5019779;28;20434;-63
2023/10/15 10:17:01;;;;;;;2.20;1.30;;;10.20;99.90;;;;;;5020381;28;20461;-63
2023/10/15 10:19:28;;;;;;;5.00;1.00;;;10.50;99.90;;;;;;5018169;28;20440;-64
2023/10/15 10:21:55;;;;;;;8.27;1.63;;;10.70;99.90;;;;;;5018214;28;20480;-63
2023/10/15 10:24:23;;;;;;;3.53;1.03;;;11.20;99.90;;;;;;5018277;28;20429;-63
2023/10/15 10:26:55;;;;;;;3.37;1.00;;;13.30;99.90;;;;;;5019723;28;20518;-63
2023/10/15 10:29:26;;;;;;;2.27;0.67;;;11.20;99.50;;;;;;5018298;28;20436;-63
2023/10/15 10:31:54;;;;;;;1.80;0.83;;;11.10;97.80;;;;;;5019597;28;20440;-63
2023/10/15 10:34:30;;;;;;;1.50;0.70;;;10.90;97.90;;;;;;5022006;28;20452;-63
2023/10/15 10:36:55;;;;;;;1.40;0.70;;;11.10;98.10;;;;;;5024020;28;20511;-63
2023/10/15 10:39:22;;;;;;;1.87;0.93;;;10.80;98.50;;;;;;5021553;28;20428;-63
2023/10/15 10:41:54;;;;;;;1.90;0.83;;;10.90;98.60;;;;;;5023263;28;20206;-63
2023/10/15 10:44:22;;;;;;;2.03;0.93;;;10.90;97.20;;;;;;5021499;28;20440;-63
2023/10/15 10:46:50;;;;;;;3.03;0.70;;;11.00;97.80;;;;;;5021920;28;20437;-63
2023/10/15 10:49:18;;;;;;;8.60;0.70;;;11.20;98.10;;;;;;5022434;28;20680;-63
2023/10/15 10:52:15;;;;;;;2.90;0.70;;;11.50;97.10;;;;;;5024263;28;20429;-63
2023/10/15 10:54:41;;;;;;;1.43;0.60;;;11.40;96.70;;;;;;5022684;28;20433;-63
2023/10/15 10:57:07;;;;;;;1.87;0.80;;;12.30;96.90;;;;;;5023913;28;21213;-63
2023/10/15 10:59:34;;;;;;;2.63;0.93;;;10.70;96.40;;;;;;5024453;28;20440;-62
2023/10/15 11:02:00;;;;;;;5.40;1.20;;;11.00;96.80;;;;;;5019463;28;20481;-62
2023/10/15 11:04:26;;;;;;;3.10;0.93;;;10.80;97.10;;;;;;5021802;28;20456;-63
2023/10/15 11:06:52;;;;;;;1.80;1.10;;;11.10;98.00;;;;;;5023118;28;20520;-62
2023/10/15 11:09:22;;;;;;;4.20;1.13;;;11.60;96.30;;;;;;5020562;28;20301;-63
2023/10/15 11:11:55;;;;;;;1.97;0.70;;;12.10;96.80;;;;;;5022657;28;20558;-63
2023/10/15 11:14:23;;;;;;;3.40;1.37;;;11.90;96.80;;;;;;5021951;28;20945;-64
2023/10/15 11:16:54;;;;;;;1.97;0.80;;;12.30;95.80;;;;;;5019800;28;20547;-63
2023/10/15 11:19:25;;;;;;;5.80;1.40;;;12.60;95.10;;;;;;5021661;28;20432;-63
2023/10/15 11:21:52;;;;;;;2.83;1.20;;;12.70;95.30;;;;;;5023053;28;20487;-64
2023/10/15 11:24:19;;;;;;;1.77;0.90;;;12.90;94.70;;;;;;5022095;28;20495;-64
2023/10/15 11:26:45;;;;;;;3.70;0.80;;;12.80;93.40;;;;;;5021921;28;20464;-64
2023/10/15 11:29:18;;;;;;;2.00;0.80;;;13.30;92.50;;;;;;5020163;28;20556;-64
2023/10/15 11:31:47;;;;;;;11.50;0.90;;;12.40;92.80;;;;;;5020735;28;20446;-64
2023/10/15 11:34:17;;;;;;;1.50;0.70;;;12.10;94.00;;;;;;5020338;28;20480;-63
2023/10/15 11:36:44;;;;;;;4.30;0.70;;;11.50;94.30;;;;;;5021470;28;20456;-64
2023/10/15 11:39:18;;;;;;;2.70;0.90;;;11.00;94.00;;;;;;5019726;28;20524;-63
2023/10/15 11:41:49;;;;;;;2.60;1.00;;;10.60;96.20;;;;;;5020666;28;20474;-63
2023/10/15 11:44:15;;;;;;;2.03;0.90;;;10.50;94.40;;;;;;5022435;28;20637;-63
2023/10/15 11:46:41;;;;;;;3.10;1.40;;;10.50;96.40;;;;;;5020721;28;20544;-63
2023/10/15 11:49:09;;;;;;;1.87;0.87;;;10.50;95.50;;;;;;5021496;28;20935;-63
2023/10/15 11:51:35;;;;;;;2.67;0.90;;;10.70;95.60;;;;;;5023207;28;20466;-63
2023/10/15 11:54:01;;;;;;;2.03;0.50;;;10.60;96.20;;;;;;5020920;28;20451;-65
2023/10/15 11:56:34;;;;;;;1.57;0.67;;;10.50;96.50;;;;;;5019353;28;20768;-63
2023/10/15 11:58:59;;;;;;;5.47;0.70;;;10.30;95.70;;;;;;5021070;28;20456;-63
2023/10/15 12:01:26;;;;;;;9.80;0.83;;;10.40;96.50;;;;;;5023314;28;20496;-63
2023/10/15 12:03:55;;;;;;;1.60;0.77;;;10.10;97.10;;;;;;5021400;28;20187;-63
2023/10/15 12:06:21;;;;;;;3.30;0.87;;;9.70;98.30;;;;;;5022145;28;20433;-62
2023/10/15 12:08:48;;;;;;;4.50;0.83;;;9.50;98.40;;;;;;5019609;28;20445;-64
2023/10/15 12:11:18;;;;;;;1.40;0.70;;;9.20;98.00;;;;;;5020023;28;20441;-63
2023/10/15 12:13:44;;;;;;;1.10;0.50;;;9.00;99.10;;;;;;5021819;28;21737;-63
2023/10/15 12:16:11;;;;;;;1.83;0.70;;;8.90;99.80;;;;;;5021075;28;20483;-63
2023/10/15 12:18:37;;;;;;;3.00;0.77;;;9.10;99.90;;;;;;5019675;28;20444;-63
2023/10/15 12:21:02;;;;;;;3.63;0.90;;;9.10;99.90;;;;;;5018772;28;20470;-63
2023/10/15 12:23:28;;;;;;;6.20;1.37;;;9.10;98.60;;;;;;5020183;28;20455;-64
2023/10/15 12:25:54;;;;;;;2.50;0.67;;;9.40;99.50;;;;;;5021164;28;20281;-63
2023/10/15 12:28:19;;;;;;;2.33;0.70;;;9.30;99.70;;;;;;5017033;28;20286;-63
2023/10/15 12:30:45;;;;;;;2.30;0.87;;;9.40;99.00;;;;;;5021751;28;20655;-63
2023/10/15 12:33:15;;;;;;;2.43;1.10;;;9.50;99.50;;;;;;5020484;28;20292;-63
2023/10/15 12:35:41;;;;;;;1.77;0.73;;;9.50;99.40;;;;;;5020913;28;20185;-63
2023/10/15 12:38:12;;;;;;;4.03;0.70;;;9.60;99.30;;;;;;5020678;28;20796;-63
2023/10/15 12:40:38;;;;;;;1.60;0.60;;;10.10;98.00;;;;;;5021848;28;20190;-63
2023/10/15 12:43:08;;;;;;;2.23;0.67;;;10.30;96.40;;;;;;5017256;28;20444;-63
2023/10/15 12:45:46;;;;;;;1.63;0.80;;;10.70;94.90;;;;;;5022055;28;20520;-63
2023/10/15 12:48:13;;;;;;;4.30;1.03;;;13.50;97.00;;;;;;5017664;28;20777;-62
2023/10/15 12:50:38;;;;;;;1.43;0.67;;;11.20;96.00;;;;;;5021550;28;20432;-62
2023/10/15 12:53:04;;;;;;;1.80;0.93;;;;;;;;;;5018158;28;20451;-63
2023/10/15 12:55:30;;;;;;;3.83;1.03;;;11.80;94.90;;;;;;5021684;28;20237;-63
2023/10/15 12:57:55;;;;;;;5.63;0.80;;;11.90;92.70;;;;;;5018124;28;20461;-62
2023/10/15 13:00:21;;;;;;;2.27;1.00;;;11.90;92.50;;;;;;5019086;28;20221;-62
2023/10/15 13:02:49;;;;;;;2.27;0.83;;;12.10;92.20;;;;;;5019228;28;20785;-63
2023/10/15 13:05:15;;;;;;;9.00;1.57;;;12.30;92.00;;;;;;5019694;28;20193;-63
2023/10/15 13:07:41;;;;;;;1.60;0.73;;;12.20;92.60;;;;;;5016062;28;20441;-63
2023/10/15 13:10:09;;;;;;;2.57;0.93;;;12.20;92.40;;;;;;5018734;28;20438;-63
2023/10/15 13:12:36;;;;;;;4.40;0.80;;;12.20;92.00;;;;;;5016937;28;20186;-63
2023/10/15 13:15:01;;;;;;;2.97;1.00;;;12.20;92.50;;;;;;5018915;28;20872;-63
2023/10/15 13:17:27;;;;;;;2.90;0.70;;;12.30;92.60;;;;;;5019490;28;20544;-63